Date,TemperatureHighF,TemperatureAvgF,TemperatureLowF,DewpointHighF,DewpointAvgF,DewpointLowF,HumidityHigh,HumidityAvg,HumidityLow,PressureMaxIn,PressureMinIn,WindSpeedMaxMPH,WindSpeedAvgMPH,GustSpeedMaxMPH,PrecipitationSumIn
2013-1-1,47.5,45.8,43.2,47.0,40.5,29.0,97,84,53,30.13,29.95,2,0,4,0.53
2013-1-2,51.8,47.9,44.5,48.0,42.4,39.0,98,81,68,30.15,29.92,8,2,11,0.09
2013-1-3,46.9,42.5,36.7,42.0,37.5,27.0,95,83,63,30.30,30.10,8,1,11,0.00
2013-1-4,49.8,39.6,33.9,27.0,24.0,21.0,69,55,39,30.37,30.25,10,3,19,0.00
2013-1-5,47.9,40.1,29.8,35.0,23.9,19.0,83,54,39,30.40,30.25,11,1,12,0.00
2013-1-6,56.8,44.4,36.5,44.0,36.8,30.0,89,75,58,30.25,30.04,7,1,15,0.00
2013-1-7,52.8,40.7,30.0,33.0,28.8,27.0,89,65,38,30.43,30.22,4,1,9,0.00
2013-1-8,51.6,39.7,27.1,40.0,33.4,26.0,97,80,57,30.48,30.38,2,0,3,0.00
2013-1-9,59.2,52.3,45.4,53.0,47.8,40.0,94,85,79,30.46,30.38,1,0,2,0.00
2013-1-10,66.4,55.4,45.1,55.0,50.5,44.0,98,85,64,30.49,30.34,4,0,7,0.03
2013-1-11,53.6,51.1,50.5,51.0,50.2,50.0,98,97,92,30.34,30.16,1,0,4,0.78
2013-1-12,72.9,60.1,51.2,66.0,57.8,51.0,98,92,70,30.17,30.07,3,0,5,0.03
2013-1-13,66.4,59.0,53.5,62.0,57.7,53.0,98,95,86,30.12,30.04,2,0,5,0.01
2013-1-14,64.7,61.6,54.5,64.0,60.8,53.0,98,97,91,30.10,30.03,4,0,7,0.88
2013-1-15,55.1,51.7,45.7,55.0,50.9,45.0,98,97,93,30.11,30.03,2,0,4,1.44
2013-1-16,51.5,47.8,44.5,51.0,47.2,44.0,98,98,97,30.04,29.97,1,0,2,0.50
2013-1-17,51.9,47.6,38.7,51.0,46.5,33.0,98,95,81,30.21,29.74,8,1,15,2.34
2013-1-18,52.7,39.4,28.8,33.0,27.5,23.0,95,65,33,30.52,30.21,9,2,15,0.00
2013-1-19,53.2,36.6,25.4,32.0,27.8,25.0,96,75,36,30.51,30.23,4,0,6,0.00
2013-1-20,64.6,45.6,29.8,38.0,31.3,28.0,92,62,36,30.21,30.05,7,1,11,0.00
2013-1-21,59.8,42.7,30.3,32.0,26.8,18.0,94,59,25,30.09,29.95,10,1,19,0.00
2013-1-22,42.0,33.2,27.3,24.0,10.7,5.0,74,40,26,30.29,30.04,8,3,14,0.00
2013-1-23,50.6,36.3,25.8,29.0,18.0,4.0,71,49,34,30.37,30.10,5,1,6,0.00
2013-1-24,44.4,36.9,26.1,31.0,18.8,3.0,93,53,23,30.50,30.02,10,2,16,0.00
2013-1-25,28.4,26.1,22.3,27.0,17.9,7.0,94,73,46,30.53,30.16,1,0,5,0.00
2013-1-26,52.6,38.2,25.8,35.0,29.5,25.0,97,74,43,30.36,30.13,7,1,12,0.01
2013-1-27,45.2,35.7,26.7,34.0,29.3,25.0,95,79,60,30.58,30.36,4,0,6,0.00
2013-1-28,53.5,44.2,39.2,46.0,37.9,31.0,92,78,70,30.49,30.28,2,0,3,0.00
2013-1-29,69.2,54.5,39.8,59.0,50.6,38.0,97,87,68,30.28,30.01,5,1,7,0.04
2013-1-30,66.0,60.4,45.8,63.0,58.4,44.0,97,93,84,30.01,29.46,9,1,13,1.09
2013-1-31,48.0,41.1,35.0,44.0,26.1,20.0,94,58,35,30.07,29.56,11,2,15,0.03
2013-2-1,40.7,34.2,27.1,29.0,16.4,7.0,73,50,34,30.38,29.99,9,2,12,0.00
2013-2-2,43.3,31.5,20.5,35.0,21.8,11.0,95,71,29,30.41,30.09,4,1,11,0.05
2013-2-3,52.7,38.7,29.0,36.0,29.3,24.0,96,73,36,30.08,29.90,8,2,19,0.01
2013-2-4,52.4,40.0,30.5,31.0,24.9,21.0,76,56,34,30.16,30.03,5,1,12,0.00
2013-2-5,64.4,45.9,32.3,43.0,33.7,28.0,84,65,36,30.02,29.91,6,1,11,0.00
2013-2-6,66.3,48.9,34.0,36.0,32.1,28.0,93,57,26,30.20,30.01,5,1,9,0.00
2013-2-7,49.6,44.5,40.6,43.0,35.9,26.0,96,74,45,30.23,30.00,3,0,5,0.62
2013-2-8,56.7,46.9,38.1,49.0,39.1,28.0,97,77,41,30.15,29.91,11,2,19,0.00
2013-2-9,62.0,44.6,34.7,31.0,25.2,17.0,78,51,20,30.34,30.14,13,2,16,0.00
2013-2-10,55.2,44.5,34.1,45.0,34.0,25.0,96,70,38,30.44,30.19,4,0,7,0.43
2013-2-11,56.8,51.4,45.7,55.0,50.4,45.0,98,96,92,30.19,29.98,3,0,6,0.20
2013-2-12,59.1,49.8,43.4,48.0,33.8,26.0,97,58,30,30.11,29.90,12,2,14,0.11
2013-2-13,50.2,44.1,39.1,46.0,40.9,33.0,96,89,64,29.91,29.68,5,1,11,0.06
2013-2-14,54.1,41.9,32.4,37.0,32.5,29.0,93,71,48,30.08,29.91,6,1,11,0.00
2013-2-15,62.8,43.7,28.6,40.0,32.8,28.0,97,71,34,30.12,29.95,8,1,15,0.01
2013-2-16,41.3,36.2,28.3,32.0,23.5,13.0,91,61,42,30.06,29.84,11,3,14,0.03
2013-2-17,45.6,32.0,23.2,18.0,10.1,6.0,74,43,20,30.30,30.06,6,1,11,0.00
2013-2-18,57.0,36.6,22.1,27.0,21.8,15.0,87,59,30,30.41,30.23,2,0,8,0.00
2013-2-19,54.9,41.5,30.6,45.0,32.5,20.0,94,73,36,30.23,29.91,4,1,10,0.25
2013-2-20,54.1,41.8,29.3,25.0,15.5,11.0,85,36,23,30.15,30.06,8,2,12,0.00
2013-2-21,59.9,42.9,26.4,40.0,21.5,12.0,93,48,21,30.26,30.09,3,0,5,0.22
2013-2-22,41.3,39.2,37.3,40.0,37.7,36.0,97,94,87,30.27,30.13,2,0,8,0.43
2013-2-23,45.9,41.3,37.8,44.0,40.2,37.0,97,96,92,30.14,29.86,2,0,2,0.45
2013-2-24,65.7,49.6,34.9,43.0,36.1,27.0,98,65,32,30.02,29.87,6,2,11,0.00
2013-2-25,49.8,42.3,35.0,32.0,28.7,25.0,86,60,43,30.16,29.99,5,1,11,0.00
2013-2-26,41.7,38.9,34.3,41.0,37.7,32.0,97,95,86,30.04,29.62,6,1,12,1.50
2013-2-27,58.1,45.0,30.9,42.0,36.6,30.0,97,75,49,29.84,29.68,4,1,11,0.00
2013-2-28,52.0,42.4,35.4,35.0,27.8,24.0,76,57,39,29.93,29.74,5,2,13,0.00
2013-3-1,48.7,40.1,31.0,32.0,28.3,25.0,79,64,52,29.96,29.88,6,2,10,0.00
2013-3-2,45.3,39.1,32.2,32.0,27.5,22.0,83,64,43,29.96,29.85,9,3,17,0.00
2013-3-3,42.1,33.3,28.0,21.0,18.2,16.0,69,55,41,30.06,29.94,12,5,18,0.00
2013-3-4,56.8,38.8,22.8,28.0,19.7,15.0,82,50,24,30.20,30.06,5,1,8,0.00
2013-3-5,48.8,43.3,36.4,45.0,37.2,26.0,97,80,56,30.09,29.66,5,0,8,0.63
2013-3-6,44.5,37.0,29.8,31.0,26.0,21.0,78,65,47,30.14,29.70,11,4,21,0.00
2013-3-7,57.4,41.6,32.7,34.0,27.7,25.0,78,60,35,30.28,30.14,13,4,14,0.00
2013-3-8,60.6,44.5,28.0,25.0,19.6,6.0,83,44,12,30.33,30.21,11,3,16,0.00
2013-3-9,64.8,45.8,28.0,34.0,28.0,23.0,83,54,27,30.37,30.24,4,0,7,0.00
2013-3-10,68.2,51.1,37.1,39.0,35.3,31.0,82,58,31,30.30,30.16,4,0,7,0.00
2013-3-11,64.0,53.7,44.8,54.0,47.4,38.0,96,80,63,30.18,29.82,3,0,7,1.07
2013-3-12,62.8,54.0,46.1,54.0,42.8,31.0,97,70,37,30.00,29.74,12,3,16,0.90
2013-3-13,57.2,44.7,32.5,32.0,25.4,19.0,88,50,25,30.19,30.00,10,3,15,0.00
2013-3-14,55.7,40.6,30.0,22.0,17.3,9.0,59,41,23,30.33,30.18,8,2,16,0.00
2013-3-15,73.9,52.8,30.2,42.0,30.2,16.0,76,44,24,30.21,29.91,10,2,12,0.00
2013-3-16,80.2,63.0,49.1,50.0,44.9,41.0,78,54,31,29.92,29.72,6,1,18,0.00
2013-3-17,77.6,62.4,49.9,51.0,46.3,43.0,77,57,36,30.01,29.82,4,1,11,0.00
2013-3-18,50.1,43.0,40.0,42.0,40.3,38.0,97,90,75,30.08,29.88,4,0,6,0.69
2013-3-19,67.0,50.8,38.5,46.0,32.0,15.0,98,57,22,30.07,29.86,7,2,14,0.00
2013-3-20,60.1,48.8,42.1,29.0,15.3,9.0,59,27,18,30.11,29.81,7,2,10,0.00
2013-3-21,46.9,36.8,28.6,32.0,17.9,13.0,80,48,29,29.98,29.81,9,4,14,0.00
2013-3-22,53.0,39.5,27.8,29.0,19.6,13.0,70,46,30,30.11,29.99,4,1,8,0.00
2013-3-23,58.7,45.8,39.4,46.0,38.8,27.0,93,77,59,30.05,29.90,4,0,6,0.04
2013-3-24,45.5,43.8,40.4,44.0,42.0,39.0,96,93,86,29.93,29.55,8,1,12,1.14
2013-3-25,47.7,39.8,33.7,40.0,27.3,21.0,97,64,40,29.95,29.57,9,2,19,0.05
2013-3-26,47.1,36.7,28.6,27.0,24.1,22.0,83,62,42,30.23,29.94,10,3,17,0.00
2013-3-27,55.4,41.1,30.4,28.0,25.3,20.0,82,56,33,30.30,30.18,9,2,13,0.00
2013-3-28,62.9,46.2,30.7,27.0,22.7,17.0,76,43,18,30.34,30.18,9,2,14,0.00
2013-3-29,64.5,45.9,28.2,40.0,28.9,20.0,83,55,25,30.36,30.22,7,1,14,0.00
2013-3-30,68.7,53.6,43.6,46.0,41.9,39.0,93,68,35,30.23,30.04,4,0,7,0.01
2013-3-31,70.8,56.2,49.9,57.0,52.4,42.0,97,88,58,30.06,29.83,4,1,12,0.49
2013-4-1,73.7,60.4,49.5,55.0,42.9,36.0,97,57,28,29.96,29.83,5,2,11,0.00
2013-4-2,69.3,54.0,43.3,40.0,30.9,23.0,81,45,23,30.14,29.96,8,2,12,0.00
2013-4-3,62.1,53.0,46.5,32.0,25.0,19.0,48,34,24,30.25,30.10,11,1,13,0.00
2013-4-4,50.8,42.9,37.4,38.0,32.9,25.0,94,71,39,30.24,29.99,8,1,9,0.88
2013-4-5,65.4,50.4,37.3,47.0,38.4,29.0,96,68,26,30.07,29.92,6,1,11,0.00
2013-4-6,71.5,54.4,37.6,41.0,36.3,34.0,89,57,26,30.21,30.07,5,1,9,0.00
2013-4-7,73.3,57.5,41.0,48.0,43.8,38.0,90,63,39,30.22,30.09,8,1,8,0.00
2013-4-8,78.9,63.0,49.7,58.0,51.8,45.0,93,70,42,30.15,30.04,4,1,11,0.00
2013-4-9,85.6,66.3,50.4,59.0,54.3,49.0,95,69,39,30.17,30.07,5,1,7,0.00
2013-4-10,87.2,69.2,54.4,61.0,56.7,52.0,93,68,38,30.08,29.92,7,1,10,0.00
2013-4-11,81.8,68.4,59.0,65.0,60.0,55.0,95,76,48,29.94,29.68,4,1,9,0.06
2013-4-12,80.4,67.5,58.3,65.0,53.2,39.0,96,67,25,29.80,29.62,9,2,14,1.20
2013-4-13,79.5,63.5,45.9,46.0,40.1,36.0,82,45,24,29.99,29.80,6,1,7,0.00
2013-4-14,71.8,59.7,44.4,53.0,45.8,37.0,91,63,34,30.07,29.96,3,0,5,0.03
2013-4-15,67.4,60.3,54.6,60.0,56.9,53.0,97,89,71,30.18,29.95,4,0,7,0.27
2013-4-16,82.3,66.3,58.7,63.0,59.2,57.0,94,80,47,30.26,30.15,3,0,5,0.00
2013-4-17,82.5,63.8,56.3,67.0,60.7,55.0,98,90,57,30.22,30.10,2,0,6,0.25
2013-4-18,79.9,66.7,57.0,66.0,61.1,57.0,98,84,53,30.13,29.94,3,0,7,0.00
2013-4-19,66.0,62.0,49.3,65.0,60.1,42.0,97,93,75,29.93,29.74,4,0,8,1.31
2013-4-20,66.9,53.2,42.3,40.0,33.2,26.0,72,49,30,30.26,29.91,9,2,13,0.00
2013-4-21,65.9,53.8,39.5,44.0,36.8,29.0,90,56,33,30.41,30.26,5,1,15,0.00
2013-4-22,66.6,52.5,39.8,44.0,40.4,38.0,95,66,39,30.40,30.20,5,1,11,0.00
2013-4-23,74.1,55.5,38.8,51.0,43.7,37.0,94,68,39,30.27,30.09,4,0,7,0.00
2013-4-24,72.3,58.7,45.5,60.0,53.4,45.0,97,83,59,30.13,30.00,4,0,15,0.00
2013-4-25,76.2,60.7,47.7,59.0,39.9,24.0,95,51,24,30.27,30.05,6,2,14,0.00
2013-4-26,73.1,60.6,50.4,48.0,37.6,31.0,76,44,27,30.40,30.27,5,1,12,0.00
2013-4-27,59.4,54.4,52.0,55.0,51.7,46.0,97,90,71,30.34,30.24,1,0,4,0.72
2013-4-28,54.2,52.3,49.8,53.0,51.6,49.0,98,97,97,30.25,30.04,2,0,7,2.69
2013-4-29,74.3,60.9,52.7,64.0,57.0,52.0,98,88,60,30.07,29.91,4,0,7,0.09
2013-4-30,75.6,62.3,49.8,65.0,57.4,49.0,98,85,59,30.14,29.96,6,0,10,0.00
2013-5-1,67.2,61.3,55.4,58.0,55.5,53.0,92,82,69,30.25,30.15,3,1,10,0.00
2013-5-2,67.7,60.2,56.4,60.0,56.2,55.0,94,86,74,30.26,30.19,6,1,10,0.01
2013-5-3,64.7,58.1,53.9,57.0,54.3,52.0,96,87,72,30.20,30.06,4,1,12,0.07
2013-5-4,58.7,53.8,51.2,53.0,49.0,45.0,95,84,74,30.07,29.93,6,2,12,0.84
2013-5-5,54.2,51.8,49.1,53.0,50.5,48.0,97,95,91,29.96,29.81,8,2,15,2.35
2013-5-6,68.0,56.8,46.4,55.0,51.9,45.0,98,85,52,29.91,29.80,3,0,11,0.01
2013-5-7,72.3,55.2,42.6,56.0,49.3,42.0,98,83,48,29.95,29.86,2,0,8,0.01
2013-5-8,75.3,60.7,47.9,61.0,54.8,47.0,98,82,58,30.02,29.91,5,0,9,0.00
2013-5-9,81.9,64.4,50.8,63.0,56.6,50.0,97,79,44,30.07,29.99,2,0,4,0.00
2013-5-10,80.9,66.1,53.5,66.0,60.1,53.0,98,83,55,30.07,29.93,7,0,10,0.00
2013-5-11,76.4,66.3,57.7,66.0,61.4,56.0,96,85,66,29.95,29.79,3,0,9,0.19
2013-5-12,73.7,61.5,50.0,59.0,46.8,33.0,97,63,34,30.03,29.84,8,1,12,0.00
2013-5-13,72.5,59.0,49.7,42.0,33.9,30.0,52,40,26,30.17,30.03,6,2,8,0.00
2013-5-14,76.2,59.4,39.8,55.0,43.8,34.0,93,60,35,30.25,30.08,4,1,8,0.00
2013-5-15,91.1,70.8,52.1,66.0,58.7,51.0,95,69,39,30.08,29.92,6,1,8,0.00
2013-5-16,81.9,68.5,55.4,67.0,60.5,54.0,95,77,52,30.01,29.94,3,0,5,0.00
2013-5-17,86.6,70.2,57.2,68.0,61.5,56.0,97,77,47,30.07,29.98,2,0,6,0.00
2013-5-18,73.2,66.2,60.6,69.0,64.4,59.0,97,94,84,30.10,30.02,1,0,3,1.28
2013-5-19,76.2,68.5,63.0,71.0,66.2,62.0,98,92,80,30.09,29.98,1,0,3,0.35
2013-5-20,83.6,69.3,60.5,72.0,65.7,60.0,98,89,64,30.05,29.98,3,0,4,0.00
2013-5-21,89.9,73.1,61.4,73.0,67.2,61.0,98,83,54,30.02,29.89,4,0,4,0.00
2013-5-22,85.9,70.6,62.1,73.0,66.0,60.0,98,87,62,29.98,29.82,4,0,13,2.23
2013-5-23,84.1,70.1,61.9,72.0,63.8,59.0,98,82,56,29.93,29.80,3,0,8,0.15
2013-5-24,72.8,64.5,54.1,58.0,48.6,39.0,95,60,30,30.19,29.88,6,2,13,0.00
2013-5-25,80.5,64.4,53.0,56.0,44.9,33.0,84,52,28,30.28,30.15,4,1,9,0.00
2013-5-26,78.0,63.7,53.3,58.0,51.5,42.0,92,67,43,30.27,30.15,3,0,5,0.01
2013-5-27,85.6,66.9,51.0,62.0,57.0,50.0,97,74,42,30.25,30.11,2,0,6,0.00
2013-5-28,86.8,70.9,58.5,67.0,61.9,57.0,97,76,46,30.20,30.11,3,0,7,0.00
2013-5-29,87.8,71.9,58.6,69.0,63.2,58.0,97,77,47,30.21,30.12,2,0,5,0.00
2013-5-30,88.1,71.3,60.2,68.0,63.6,59.0,97,79,48,30.25,30.13,2,0,6,0.00
2013-5-31,87.0,72.9,63.5,70.0,65.5,62.0,96,79,52,30.20,30.08,2,0,6,0.00
2013-6-1,85.4,73.2,65.7,70.0,66.8,64.0,97,82,55,30.10,29.98,3,0,7,0.07
2013-6-2,78.8,70.0,67.0,73.0,67.6,65.0,97,92,79,30.02,29.88,1,0,5,1.53
2013-6-3,82.4,71.6,65.7,74.0,68.4,65.0,98,90,71,29.93,29.82,2,0,4,0.08
2013-6-4,84.6,72.1,61.3,72.0,66.5,61.0,98,83,59,30.04,29.91,5,1,8,0.00
2013-6-5,81.6,72.4,67.4,72.0,67.9,65.0,96,86,70,30.06,29.91,4,0,8,0.45
2013-6-6,76.6,69.5,64.4,72.0,67.8,64.0,97,94,83,29.95,29.77,1,0,4,0.27
2013-6-7,83.8,69.6,65.5,76.0,67.8,64.0,98,94,70,29.81,29.65,6,0,7,1.49
2013-6-8,83.8,72.0,63.1,73.0,67.6,62.0,98,87,65,30.07,29.81,1,0,4,0.00
2013-6-9,82.8,71.5,64.7,75.0,68.7,64.0,98,91,70,30.11,30.01,6,0,8,0.67
2013-6-10,79.5,70.9,67.3,72.0,68.7,65.0,98,93,73,30.04,29.89,5,0,9,1.44
2013-6-11,91.1,75.9,68.3,74.0,69.3,65.0,97,82,46,29.98,29.90,2,0,5,0.01
2013-6-12,93.8,76.8,64.5,79.0,70.5,63.0,97,82,50,30.00,29.88,2,0,5,0.00
2013-6-13,93.4,77.0,66.0,76.0,69.6,64.0,98,80,46,29.89,29.67,3,0,12,0.00
2013-6-14,84.8,73.7,62.0,65.0,59.2,56.0,90,62,38,30.01,29.76,7,1,11,0.00
2013-6-15,87.0,70.4,56.3,66.0,61.1,55.0,96,75,47,30.12,30.01,2,0,6,0.00
2013-6-16,88.8,72.5,59.2,72.0,64.8,58.0,97,79,51,30.13,29.99,2,0,7,0.00
2013-6-17,82.4,73.0,67.5,74.0,69.5,67.0,97,89,75,30.02,29.91,5,0,8,1.68
2013-6-18,82.2,72.8,67.1,76.0,69.6,63.0,97,90,78,29.94,29.76,3,0,7,0.15
2013-6-19,82.2,73.3,64.5,71.0,66.1,63.0,96,78,61,30.08,29.88,4,0,7,0.00
2013-6-20,84.5,71.8,62.9,71.0,66.4,62.0,98,84,61,30.19,30.07,4,0,8,0.00
2013-6-21,84.7,71.3,61.3,69.0,64.8,61.0,98,82,53,30.25,30.14,3,0,7,0.00
2013-6-22,87.9,72.3,59.6,68.0,63.7,59.0,98,77,46,30.21,30.09,5,0,5,0.00
2013-6-23,88.8,74.2,64.4,75.0,68.3,63.0,97,83,56,30.19,30.08,5,0,6,0.22
2013-6-24,88.4,77.2,69.0,76.0,71.7,68.0,97,84,61,30.19,30.06,3,0,6,0.01
2013-6-25,90.3,75.2,67.2,75.0,69.9,66.0,98,85,55,30.12,29.99,2,0,6,0.00
2013-6-26,90.4,73.0,66.2,78.0,70.1,65.0,98,91,61,30.03,29.89,3,0,8,0.30
2013-6-27,90.4,76.4,67.8,79.0,72.1,67.0,98,87,62,29.94,29.69,5,0,11,0.23
2013-6-28,92.7,78.0,67.2,79.0,70.9,66.0,98,81,44,29.77,29.57,3,0,9,0.01
2013-6-29,89.2,75.2,64.7,74.0,68.6,64.0,97,81,53,29.68,29.59,2,0,5,0.00
2013-6-30,87.7,74.1,66.5,76.0,69.5,66.0,97,86,61,29.79,29.67,2,0,4,0.00
2013-7-1,84.4,73.5,67.9,75.0,69.6,67.0,97,88,67,29.93,29.78,2,0,6,0.49
2013-7-2,80.3,72.8,67.3,75.0,70.6,67.0,98,92,80,30.11,29.93,2,0,5,0.23
2013-7-3,83.0,72.4,64.6,76.0,70.2,64.0,97,93,75,30.19,30.08,2,0,7,1.25
2013-7-4,77.5,69.3,65.1,75.0,68.4,64.0,98,97,89,30.20,30.11,2,0,7,3.06
2013-7-5,87.2,72.9,68.0,74.0,69.7,68.0,98,91,63,30.23,30.14,3,0,8,0.53
2013-7-6,86.5,72.9,68.4,76.0,71.0,68.0,98,94,68,30.19,30.08,2,0,8,0.89
2013-7-7,82.5,74.4,70.2,76.0,72.1,70.0,98,92,78,30.15,30.05,2,0,5,0.45
2013-7-8,89.3,75.3,69.8,78.0,71.6,69.0,98,89,62,30.16,30.07,2,0,4,0.00
2013-7-9,91.6,77.2,68.6,79.0,72.9,68.0,98,87,62,30.16,30.02,2,0,7,1.58
2013-7-10,84.7,74.9,69.9,78.0,72.5,69.0,98,92,77,30.10,29.93,3,0,4,0.18
2013-7-11,82.9,74.3,68.9,76.0,72.0,68.0,98,93,78,29.94,29.85,1,0,4,0.00
2013-7-12,88.4,73.5,66.3,77.0,70.6,65.0,98,91,66,29.97,29.85,3,0,7,0.11
2013-7-13,78.7,70.9,65.0,72.0,68.4,64.0,97,91,79,30.08,29.97,3,0,10,0.02
2013-7-14,77.2,72.3,68.6,74.0,70.9,68.0,98,95,85,30.25,30.07,3,0,6,0.39
2013-7-15,86.0,74.7,67.6,76.0,71.0,67.0,99,89,65,30.30,30.22,3,0,8,0.03
2013-7-16,93.2,78.4,69.0,79.0,72.7,69.0,98,84,56,30.29,30.19,2,0,4,0.00
2013-7-17,93.9,78.2,70.1,80.0,72.3,69.0,97,83,55,30.23,30.09,3,0,6,0.16
2013-7-18,91.1,78.2,68.0,78.0,72.4,67.0,98,84,61,30.16,30.04,1,0,3,0.00
2013-7-19,92.0,78.3,68.7,77.0,72.8,68.0,98,85,55,30.09,29.95,3,0,5,0.00
2013-7-20,91.7,75.7,71.0,80.0,73.1,69.0,98,92,68,30.01,29.91,2,0,5,0.29
2013-7-21,90.5,75.2,70.0,79.0,72.1,69.0,98,91,66,29.99,29.91,2,0,4,0.28
2013-7-22,86.0,74.3,68.4,77.0,71.6,68.0,98,91,72,29.98,29.82,2,0,6,0.74
2013-7-23,89.9,75.4,66.7,76.0,71.2,66.0,98,88,57,29.88,29.76,2,0,6,0.01
2013-7-24,92.5,77.1,71.3,76.0,70.2,67.0,95,80,54,29.81,29.73,4,0,6,0.00
2013-7-25,87.0,74.1,67.1,75.0,69.2,66.0,97,85,64,30.00,29.80,4,0,8,0.00
2013-7-26,86.4,74.0,65.3,75.0,69.8,64.0,97,87,66,30.08,29.98,2,0,5,0.00
2013-7-27,82.7,73.6,68.8,75.0,71.0,68.0,98,92,75,30.02,29.86,2,0,8,4.04
2013-7-28,87.1,74.9,67.0,76.0,70.4,67.0,98,87,64,29.99,29.88,3,0,4,0.00
2013-7-29,88.6,74.5,66.6,73.0,66.2,61.0,91,76,54,30.14,29.98,2,0,5,0.00
2013-7-30,83.7,73.3,62.6,74.0,67.0,58.0,96,81,66,30.19,30.10,3,0,7,0.00
2013-7-31,79.6,72.3,69.8,74.0,70.5,68.0,98,94,81,30.14,29.95,1,0,3,1.02
2013-8-1,89.0,75.0,70.6,76.0,71.8,69.0,98,90,65,29.97,29.87,3,0,6,0.46
2013-8-2,87.8,76.6,69.1,76.0,70.2,66.0,96,81,61,30.01,29.89,3,0,6,0.00
2013-8-3,88.3,75.8,67.9,75.0,70.7,67.0,98,85,57,30.00,29.93,2,0,3,0.00
2013-8-4,88.3,77.1,69.0,74.0,68.4,62.0,95,75,59,30.00,29.91,6,1,10,0.00
2013-8-5,86.6,74.6,66.8,75.0,68.0,63.0,95,80,65,30.05,29.94,1,0,5,0.00
2013-8-6,82.8,74.2,69.7,75.0,71.4,69.0,97,91,71,30.03,29.94,4,0,5,0.60
2013-8-7,75.5,72.6,71.2,74.0,71.7,70.0,98,97,94,30.06,29.99,1,0,1,0.82
2013-8-8,84.1,75.2,70.1,77.0,72.6,69.0,98,92,74,30.05,29.98,3,0,6,0.00
2013-8-9,90.6,75.6,71.1,79.0,73.3,71.0,98,93,67,30.06,29.99,2,0,7,0.17
2013-8-10,88.3,75.2,69.8,79.0,73.1,69.0,99,93,73,30.10,30.02,4,0,17,1.21
2013-8-11,89.0,73.8,67.6,78.0,71.8,67.0,99,94,66,30.11,30.04,1,0,4,0.10
2013-8-12,92.7,75.7,69.5,79.0,71.9,69.0,98,89,57,30.07,29.94,4,0,9,0.01
2013-8-13,88.2,76.4,69.7,78.0,72.1,68.0,98,87,65,29.95,29.78,3,0,6,0.00
2013-8-14,81.4,73.2,66.8,72.0,67.2,63.0,96,82,66,30.04,29.85,5,1,10,0.01
2013-8-15,70.6,65.2,59.6,65.0,61.3,59.0,97,87,70,30.12,30.03,3,0,8,0.00
2013-8-16,72.9,65.1,60.9,65.0,61.2,59.0,96,87,69,30.15,30.07,4,0,10,0.00
2013-8-17,70.6,64.8,61.1,65.0,62.3,59.0,97,91,77,30.17,30.11,1,0,3,0.13
2013-8-18,75.9,67.9,63.6,71.0,66.2,63.0,98,94,79,30.21,30.13,1,0,2,0.37
2013-8-19,76.2,69.4,66.4,72.0,67.9,66.0,98,95,83,30.19,30.07,3,0,4,1.31
2013-8-20,78.9,70.8,63.7,73.0,68.6,63.0,98,93,79,30.18,30.09,2,0,5,0.01
2013-8-21,78.6,72.0,68.2,74.0,70.3,68.0,98,94,83,30.22,30.10,2,0,2,0.35
2013-8-22,87.1,73.3,65.6,77.0,70.4,65.0,99,91,63,30.14,30.01,2,0,3,0.02
2013-8-23,90.5,73.2,65.6,76.0,69.0,65.0,99,88,52,30.05,29.93,2,0,7,0.02
2013-8-24,81.8,70.2,60.6,68.0,65.0,60.0,98,85,58,30.28,30.04,4,0,8,0.00
2013-8-25,79.7,66.6,57.3,67.0,61.6,57.0,98,85,54,30.38,30.26,6,0,7,0.00
2013-8-26,84.8,68.3,56.5,70.0,63.5,56.0,98,86,57,30.32,30.12,3,0,4,0.00
2013-8-27,89.9,72.9,61.5,75.0,67.7,61.0,98,85,51,30.14,29.99,4,0,6,0.00
2013-8-28,91.8,77.2,68.5,77.0,71.1,68.0,97,82,57,30.02,29.91,2,0,6,0.00
2013-8-29,91.7,78.9,69.3,76.0,71.9,68.0,97,80,55,29.94,29.86,3,0,6,0.00
2013-8-30,83.7,74.9,71.2,75.0,72.2,70.0,97,91,69,30.02,29.91,2,0,4,0.89
2013-8-31,88.0,73.8,69.2,77.0,71.4,69.0,98,92,68,29.95,29.86,2,0,8,0.11
2013-9-1,86.7,73.3,66.8,78.0,71.3,66.0,98,93,74,29.90,29.80,1,0,12,0.59
2013-9-2,86.2,74.8,67.9,77.0,71.4,67.0,98,90,71,29.89,29.80,2,0,3,0.01
2013-9-3,87.3,73.9,65.2,74.0,68.4,62.0,97,84,54,29.95,29.81,3,0,8,0.07
2013-9-4,86.4,73.7,64.9,72.0,67.9,64.0,98,83,55,30.08,29.94,2,0,4,0.00
2013-9-5,88.9,73.7,64.6,73.0,67.4,62.0,98,82,50,30.11,30.03,4,0,4,0.00
2013-9-6,83.9,71.5,63.3,69.0,64.1,60.0,96,79,56,30.17,30.05,5,0,7,0.00
2013-9-7,83.9,69.7,60.1,71.0,65.3,59.0,98,87,59,30.13,29.98,1,0,4,0.00
2013-9-8,85.3,72.0,63.7,74.0,68.3,63.0,98,89,60,29.99,29.92,2,0,6,0.00
2013-9-9,86.8,73.1,64.7,75.0,69.0,64.0,98,88,64,30.12,29.98,2,0,5,0.00
2013-9-10,89.9,73.0,63.9,74.0,68.7,63.0,98,88,58,30.22,30.12,1,0,3,0.00
2013-9-11,88.2,73.1,63.8,75.0,69.4,63.0,98,89,62,30.20,30.07,1,0,2,0.00
2013-9-12,89.5,72.2,66.7,75.0,69.6,66.0,98,92,57,30.07,29.85,3,0,6,1.11
2013-9-13,82.0,71.0,64.6,69.0,63.0,54.0,98,78,54,29.88,29.78,4,1,15,0.00
2013-9-14,77.3,64.3,56.8,62.0,56.5,52.0,96,77,55,30.11,29.88,4,0,9,0.00
2013-9-15,79.0,65.8,56.0,68.0,62.0,55.0,98,88,64,30.21,30.10,2,0,5,0.00
2013-9-16,85.9,70.6,61.1,70.0,64.8,60.0,98,83,56,30.13,30.04,1,0,2,0.00
2013-9-17,70.4,66.1,62.0,64.0,59.9,54.0,93,81,66,30.28,30.13,7,0,8,0.00
2013-9-18,70.9,63.9,57.0,63.0,59.6,55.0,95,86,71,30.28,30.16,1,0,5,0.00
2013-9-19,83.2,66.4,56.7,70.0,63.2,56.0,98,90,65,30.18,30.07,3,0,4,0.00
2013-9-20,86.3,69.8,61.1,72.0,65.7,61.0,98,88,57,30.08,29.90,1,0,4,0.00
2013-9-21,70.2,65.8,62.2,69.0,64.9,62.0,98,96,90,29.91,29.65,2,0,8,1.46
2013-9-22,79.2,67.2,62.0,64.0,59.4,56.0,93,77,46,29.90,29.72,5,1,9,0.00
2013-9-23,75.3,64.2,58.6,64.0,59.9,57.0,97,86,62,30.04,29.90,2,0,6,0.00
2013-9-24,76.0,64.2,54.8,67.0,61.2,54.0,98,90,68,30.07,29.93,2,0,3,0.00
2013-9-25,64.1,62.6,60.8,63.0,61.6,60.0,98,96,93,29.93,29.86,1,0,5,0.89
2013-9-26,74.7,63.8,55.7,64.0,60.4,55.0,98,89,63,30.02,29.87,1,0,5,0.00
2013-9-27,75.7,61.7,52.5,64.0,57.6,52.0,98,88,61,30.17,30.03,5,0,6,0.00
2013-9-28,71.0,61.2,54.9,61.0,57.5,54.0,98,89,68,30.24,30.14,2,0,7,0.00
2013-9-29,75.0,60.1,51.4,62.0,56.4,51.0,98,88,61,30.18,30.03,4,0,5,0.00
2013-9-30,73.6,61.9,52.8,64.0,58.3,52.0,98,89,63,30.10,29.99,1,0,3,0.00
2013-10-1,81.4,63.2,53.4,65.0,58.7,53.0,98,87,54,30.15,30.04,3,0,4,0.00
2013-10-2,81.1,65.9,57.1,68.0,61.7,56.0,98,87,58,30.15,30.06,1,0,7,0.00
2013-10-3,77.4,62.9,57.5,67.0,60.9,57.0,98,93,65,30.12,30.07,2,0,5,0.00
2013-10-7,70.1,62.3,57.4,65.0,50.3,-99.9,89,71,65,29.98,0.00,6,-39,9,1.58
2013-10-8,69.9,60.8,56.1,58.0,53.0,49.0,91,76,58,30.19,29.97,5,1,8,0.00
2013-10-9,72.4,57.3,48.9,55.0,49.6,44.0,96,78,46,30.22,30.11,4,0,6,0.00
2013-10-10,77.3,59.9,45.8,59.0,52.4,45.0,98,79,49,30.13,30.00,5,0,6,0.00
2013-10-11,79.3,67.5,59.2,60.0,56.1,54.0,86,68,43,30.00,29.91,3,1,10,0.00
2013-10-12,78.4,65.8,55.8,66.0,60.0,54.0,95,82,56,30.07,29.95,3,0,6,0.00
2013-10-13,74.1,66.1,61.7,67.0,63.6,61.0,97,91,74,30.20,30.08,1,0,5,0.08
2013-10-14,69.6,64.0,60.9,65.0,62.0,60.0,98,93,80,30.22,30.13,2,0,6,0.00
2013-10-15,67.3,60.3,54.6,61.0,57.7,54.0,98,91,77,30.18,30.05,2,0,5,0.00
2013-10-16,70.2,60.1,50.7,62.0,57.1,50.0,98,90,70,30.07,29.96,2,0,3,0.00
2013-10-17,66.0,62.8,60.0,64.0,61.7,59.0,98,96,89,29.97,29.86,2,0,8,0.07
2013-10-18,70.7,60.4,53.9,61.0,55.7,51.0,97,85,65,30.02,29.89,2,0,5,0.00
2013-10-19,65.5,59.3,52.8,60.0,57.4,51.0,98,93,77,29.96,29.84,2,0,4,0.01
2013-10-20,67.8,53.9,45.3,52.0,46.9,42.0,97,78,51,30.09,29.93,4,1,8,0.00
2013-10-21,68.4,52.7,42.0,57.0,49.5,42.0,98,90,68,30.16,30.01,2,0,5,0.00
2013-10-22,70.2,58.1,51.2,58.0,54.5,50.0,98,88,64,30.03,29.80,2,0,5,0.01
2013-10-23,64.4,51.6,42.3,51.0,41.3,31.0,98,71,42,30.06,29.75,7,1,12,0.00
2013-10-24,61.6,47.1,35.2,46.0,37.3,32.0,93,70,50,30.19,30.06,5,1,9,0.00
2013-10-25,53.2,42.6,31.4,39.0,31.7,26.0,95,67,41,30.40,30.18,7,2,11,0.00
2013-10-26,57.3,39.4,27.3,40.0,33.5,26.0,97,82,47,30.39,30.12,4,0,8,0.00
2013-10-27,68.1,51.9,39.6,54.0,46.4,38.0,97,83,56,30.15,30.07,2,0,8,0.00
2013-10-28,68.5,58.0,49.7,59.0,53.9,49.0,97,87,65,30.25,30.11,2,0,4,0.02
2013-10-29,73.1,58.1,48.1,57.0,53.2,47.0,98,85,54,30.33,30.23,2,0,5,0.00
2013-10-30,77.8,60.8,52.3,62.0,56.4,51.0,98,87,56,30.28,30.14,2,0,5,0.00
2013-10-31,68.7,60.7,54.3,62.0,57.9,54.0,98,91,72,30.17,29.89,3,0,4,0.01
2013-11-1,72.9,63.2,57.0,64.0,61.1,56.0,98,93,70,29.88,29.64,3,0,10,0.40
2013-11-2,66.2,55.6,44.9,56.0,44.8,38.0,97,70,37,30.00,29.73,10,1,13,0.00
2013-11-3,63.2,49.8,40.0,43.0,39.4,33.0,96,70,33,30.37,30.00,4,1,12,0.00
2013-11-4,58.5,44.7,36.9,39.0,36.6,32.0,97,77,41,30.53,30.36,8,0,8,0.00
2013-11-5,59.7,45.1,33.1,47.0,39.0,32.0,97,81,47,30.57,30.44,4,0,9,0.00
2013-11-6,68.8,55.6,48.3,56.0,51.1,47.0,97,86,62,30.43,30.14,4,0,6,0.00
2013-11-7,67.5,54.4,46.2,60.0,46.6,33.0,98,77,48,30.16,29.99,11,2,16,0.03
2013-11-8,59.4,47.0,35.0,33.0,27.4,18.0,82,50,21,30.33,30.16,9,2,14,0.00
2013-11-9,58.4,43.6,29.6,40.0,32.6,27.0,95,69,37,30.39,30.24,3,0,5,0.00
2013-11-10,74.2,58.1,40.9,39.0,34.3,26.0,89,44,24,30.25,30.14,7,2,12,0.00
2013-11-11,58.0,47.6,35.7,32.0,28.4,26.0,82,50,33,30.35,30.19,5,1,13,0.00
2013-11-12,33.9,26.7,30.3,18.0,-1.8,-99.9,58,46,52,30.46,30.36,10,-154,24,0.00
2013-11-13,51.4,35.7,27.5,23.0,17.3,14.0,81,50,23,30.58,30.46,8,2,15,0.00
2013-11-14,58.3,37.0,23.1,26.0,22.9,20.0,91,63,24,30.52,30.36,3,0,4,0.00
2013-11-15,56.0,45.1,30.0,47.0,35.4,25.0,97,72,33,30.38,30.21,2,0,2,0.20
2013-11-16,60.7,53.0,47.9,56.0,51.3,47.0,98,94,84,30.29,30.20,1,0,4,0.00
2013-11-17,61.1,57.1,53.6,59.0,56.0,53.0,98,96,88,30.21,29.90,1,0,2,0.56
2013-11-18,70.5,59.7,51.0,61.0,48.0,34.0,98,69,31,30.00,29.86,6,1,13,0.06
2013-11-19,57.7,47.8,39.4,34.0,29.5,25.0,77,51,34,30.25,29.97,14,3,19,0.00
2013-11-20,52.5,43.8,36.0,36.0,30.5,28.0,77,61,41,30.45,30.26,6,1,11,0.00
2013-11-21,50.9,47.5,44.7,48.0,41.7,33.0,97,81,61,30.48,30.38,2,0,7,0.08
2013-11-22,58.2,54.1,48.7,57.0,53.3,48.0,98,97,94,30.41,30.13,2,0,5,0.13
2013-11-23,57.1,52.1,39.0,56.0,43.4,24.0,98,74,43,30.21,30.08,8,2,12,0.00
2013-11-24,41.1,33.2,25.8,25.0,13.9,10.0,79,47,28,30.55,30.22,8,2,16,0.00
2013-11-25,42.0,31.9,20.9,23.0,15.9,9.0,88,56,29,30.60,30.36,3,0,5,0.00
2013-11-26,46.3,39.6,32.3,46.0,38.2,22.0,98,95,56,30.35,29.66,3,0,9,3.78
2013-11-27,47.9,37.4,28.4,47.0,28.9,17.0,98,72,51,30.24,29.55,12,5,20,0.06
2013-11-28,46.6,32.2,23.2,26.0,21.2,16.0,91,66,41,30.52,30.25,9,1,12,0.00
2013-11-29,54.7,38.0,25.7,31.0,25.9,23.0,95,66,32,30.61,30.49,8,0,8,0.00
2013-11-30,46.9,34.8,26.2,27.0,25.5,24.0,92,71,44,30.66,30.41,4,0,7,0.00
2013-12-1,56.1,38.8,28.0,40.0,31.6,26.0,95,77,51,30.40,30.05,2,0,6,0.00
2013-12-2,58.9,44.8,31.0,44.0,38.2,30.0,96,80,49,30.05,29.83,2,0,5,0.00
2013-12-3,58.4,51.1,46.1,52.0,48.7,43.0,97,92,76,29.96,29.87,2,0,4,0.05
2013-12-4,57.3,54.6,51.7,57.0,54.1,51.0,98,98,96,30.08,29.94,1,0,2,0.02
2013-12-5,66.4,61.3,56.7,66.0,61.0,56.0,99,98,98,30.09,29.98,4,0,4,0.57
2013-12-6,72.7,67.3,63.0,67.0,65.1,61.0,99,93,81,30.03,29.93,6,2,15,0.33
2013-12-7,61.7,54.5,47.9,60.0,48.2,41.0,97,80,64,30.36,29.97,10,2,13,0.05
2013-12-8,47.7,39.4,35.3,41.0,37.7,35.0,97,93,78,30.38,30.28,3,1,9,0.14
2013-12-9,46.1,40.4,34.8,45.0,39.7,34.0,98,97,96,30.30,30.06,2,0,2,1.10
2013-12-10,51.5,44.1,33.6,50.0,37.7,25.0,98,80,53,30.35,29.93,7,2,15,0.18
2013-12-11,51.0,36.8,26.5,30.0,26.1,22.0,92,68,41,30.46,30.31,4,0,7,0.00
2013-12-12,47.4,39.0,28.3,24.0,18.3,10.0,69,45,29,30.43,30.32,8,2,13,0.00
2013-12-13,50.4,35.1,23.1,32.0,23.3,18.0,92,66,32,30.41,30.28,3,0,4,0.00
2013-12-14,43.7,40.6,37.4,43.0,37.5,30.0,97,89,71,30.30,29.84,2,0,10,1.14
2013-12-15,48.8,41.7,34.3,44.0,35.1,28.0,98,79,57,30.14,29.78,10,3,14,0.00
2013-12-16,58.0,41.4,27.5,35.0,30.6,26.0,95,69,40,30.20,30.11,5,0,6,0.00
2013-12-17,63.0,46.1,30.5,39.0,32.4,21.0,93,63,31,30.17,29.97,5,1,13,0.00
2013-12-18,52.7,40.6,31.3,27.0,22.5,18.0,79,51,30,30.31,30.08,8,2,15,0.00
2013-12-19,60.8,41.9,28.5,32.0,24.9,19.0,85,56,23,30.36,30.24,2,0,7,0.00
2013-12-20,60.1,48.5,36.9,46.0,38.4,30.0,89,69,50,30.26,30.16,2,0,9,0.00
2013-12-21,59.3,55.1,50.5,59.0,53.4,46.0,98,94,82,30.16,29.99,2,0,3,0.16
2013-12-22,66.5,61.4,58.6,65.0,60.8,58.0,98,97,92,30.04,29.96,3,0,8,1.65
2013-12-23,58.6,53.2,42.7,58.0,49.4,33.0,99,87,68,30.16,29.97,14,3,17,0.55
2013-12-24,42.7,36.0,28.8,33.0,24.4,17.0,77,63,51,30.45,30.15,10,4,16,0.00
2013-12-25,39.3,27.5,19.7,21.0,17.4,12.0,94,69,35,30.57,30.43,3,0,5,0.00
2013-12-26,54.2,36.5,22.5,29.0,24.3,19.0,90,65,37,30.43,30.28,4,0,6,0.00
2013-12-27,52.0,35.7,25.6,27.0,24.9,21.0,94,69,34,30.50,30.38,2,0,9,0.00
2013-12-28,49.1,37.5,26.0,40.0,32.2,24.0,96,83,51,30.45,30.14,2,0,3,0.35
2013-12-29,56.1,46.1,40.2,51.0,43.0,37.0,98,89,69,30.12,29.83,5,1,8,0.78
2013-12-30,52.9,46.3,38.2,44.0,39.1,36.0,92,77,64,30.14,29.98,6,1,9,0.00
2013-12-31,48.9,40.9,32.3,35.0,26.3,20.0,75,57,39,30.38,30.13,5,1,9,0.00
2014-1-1,48.9,37.2,28.4,34.0,29.2,23.0,90,75,45,30.41,30.17,3,0,5,0.00
2014-1-2,44.8,40.1,27.8,44.0,36.0,13.0,97,86,54,30.18,29.69,10,1,19,0.16